Aeroporto :
LOGIN :

Iscrizione | Disclaimer

   EN    FR    IT 

 










Sommario :    VFR   VFR Marginale   IFR   IFR Intensivo   IFR Molto Intensivo
Visibilità : 
Base nubi : 
>= 8 km
>= 3000ft
5 / 8 km
1000 / 3000 ft
1500m / 5 km
500 / 1000 ft
800 / 1500m
200 / 500 ft
< 800m
< 200 ft
Simboli :   Temporali  Nebbia  Neve Forte  Precipitazioni Forti  Vento > 20 kt
SIGMETs :   Varie  Temporali  Ghiacco  Turbolenza  Onda orograficha  Ceneri Vulcaniche







- Altitudine del aeroporto : 1276 ft
- Codice IATA : STR


EDDS - Stuttgart

ULTIMO METAR :
  • 220020Z VRB01KT CAVOK 01/M03 Q1030

METARs OBSOLETI :
  • 212350Z 30004KT 230V310 CAVOK 02/M03 Q1030
  • 212320Z 31002KT CAVOK 03/M03 Q1031
  • 212250Z 30003KT CAVOK 04/M02 Q1031
  • 212220Z 30002KT CAVOK 05/M02 Q1031
  • 212150Z 32005KT 300V360 CAVOK 04/M02 Q1031

TAF TAF EDDS
Valido dal 22 a 00 ore il 23 a 00 ore UTC


212300Z 2200/2224 VRB03KT CAVOK
TEMPO 2211/2217 07005KT
Nessun NOTAM noto per questo aeroporto.



MetMap, La meteo Aeronautica in un colpo d'occhio ! - Copyright ORBIFLY Dicembre 2007 - Disclaimer

ORBIFLY MET'MAP TEAM :

Programmazione e sviluppo : Alexandra Zaïnal
Concezione e sviluppo : Baudouin d'Aumeries
Co-Programmazione e sviluppo : Marc-Olivier Méhu
Supporto tecnico e logistico : Manuel Goepfert
Aiuto per la traduzione : Arnaldo La Scala

Contatto : metmap@orbifly.com




FONTI E CREDITI :

   NOAA